sensor_id;sensor_type;location;lat;lon;timestamp;P1;durP1;ratioP1;P2;durP2;ratioP2
10511;SDS011;5304;48.604;2.096;2022-07-22T00:00:08;16.42;;;13.23;;
10511;SDS011;5304;48.604;2.096;2022-07-22T00:02:53;16.60;;;13.03;;
10511;SDS011;5304;48.604;2.096;2022-07-22T00:05:38;17.60;;;12.83;;
10511;SDS011;5304;48.604;2.096;2022-07-22T00:08:22;15.43;;;13.05;;
10511;SDS011;5304;48.604;2.096;2022-07-22T00:11:07;20.70;;;13.33;;
10511;SDS011;5304;48.604;2.096;2022-07-22T00:13:52;19.25;;;13.30;;
10511;SDS011;5304;48.604;2.096;2022-07-22T00:16:36;17.88;;;12.68;;
10511;SDS011;5304;48.604;2.096;2022-07-22T00:19:20;19.58;;;13.65;;
10511;SDS011;5304;48.604;2.096;2022-07-22T00:22:05;18.90;;;13.30;;
10511;SDS011;5304;48.604;2.096;2022-07-22T00:24:50;21.47;;;14.33;;
10511;SDS011;5304;48.604;2.096;2022-07-22T00:27:34;14.38;;;12.90;;
10511;SDS011;5304;48.604;2.096;2022-07-22T00:30:19;20.63;;;14.10;;
10511;SDS011;5304;48.604;2.096;2022-07-22T00:33:03;24.73;;;14.70;;
10511;SDS011;5304;48.604;2.096;2022-07-22T00:35:48;16.63;;;14.05;;
10511;SDS011;5304;48.604;2.096;2022-07-22T00:38:32;19.65;;;14.38;;
10511;SDS011;5304;48.604;2.096;2022-07-22T00:41:17;21.33;;;14.67;;
10511;SDS011;5304;48.604;2.096;2022-07-22T00:46:48;24.03;;;15.20;;
10511;SDS011;5304;48.604;2.096;2022-07-22T00:49:32;20.60;;;15.07;;
10511;SDS011;5304;48.604;2.096;2022-07-22T00:52:18;19.10;;;15.23;;
10511;SDS011;5304;48.604;2.096;2022-07-22T00:55:03;20.17;;;15.47;;
10511;SDS011;5304;48.604;2.096;2022-07-22T00:57:49;21.33;;;16.17;;
10511;SDS011;5304;48.604;2.096;2022-07-22T01:00:33;21.13;;;15.70;;
10511;SDS011;5304;48.604;2.096;2022-07-22T01:03:18;21.97;;;14.63;;
10511;SDS011;5304;48.604;2.096;2022-07-22T01:06:03;22.70;;;16.10;;
10511;SDS011;5304;48.604;2.096;2022-07-22T01:08:48;21.37;;;15.40;;
10511;SDS011;5304;48.604;2.096;2022-07-22T01:11:32;20.07;;;15.73;;
10511;SDS011;5304;48.604;2.096;2022-07-22T01:14:17;22.83;;;16.80;;
10511;SDS011;5304;48.604;2.096;2022-07-22T01:17:01;21.47;;;16.23;;
10511;SDS011;5304;48.604;2.096;2022-07-22T01:19:46;25.47;;;16.27;;
10511;SDS011;5304;48.604;2.096;2022-07-22T01:22:30;22.13;;;15.90;;
10511;SDS011;5304;48.604;2.096;2022-07-22T01:25:14;20.10;;;15.87;;
10511;SDS011;5304;48.604;2.096;2022-07-22T01:27:59;23.57;;;16.40;;
10511;SDS011;5304;48.604;2.096;2022-07-22T01:30:43;26.47;;;16.10;;
10511;SDS011;5304;48.604;2.096;2022-07-22T01:33:28;21.48;;;16.02;;
10511;SDS011;5304;48.604;2.096;2022-07-22T01:36:13;23.20;;;15.30;;
10511;SDS011;5304;48.604;2.096;2022-07-22T01:38:57;20.10;;;15.37;;
10511;SDS011;5304;48.604;2.096;2022-07-22T01:41:42;19.83;;;15.93;;
10511;SDS011;5304;48.604;2.096;2022-07-22T01:44:27;25.53;;;16.10;;
10511;SDS011;5304;48.604;2.096;2022-07-22T01:47:13;22.80;;;15.20;;
10511;SDS011;5304;48.604;2.096;2022-07-22T01:49:57;23.43;;;16.23;;
10511;SDS011;5304;48.604;2.096;2022-07-22T01:52:42;23.33;;;16.27;;
10511;SDS011;5304;48.604;2.096;2022-07-22T01:55:26;24.27;;;16.13;;
10511;SDS011;5304;48.604;2.096;2022-07-22T01:58:11;25.73;;;16.33;;
10511;SDS011;5304;48.604;2.096;2022-07-22T02:00:55;18.73;;;15.17;;
10511;SDS011;5304;48.604;2.096;2022-07-22T02:03:40;26.17;;;16.83;;
10511;SDS011;5304;48.604;2.096;2022-07-22T02:06:24;21.23;;;15.30;;
10511;SDS011;5304;48.604;2.096;2022-07-22T02:09:09;24.93;;;16.70;;
10511;SDS011;5304;48.604;2.096;2022-07-22T02:11:53;23.07;;;16.60;;
10511;SDS011;5304;48.604;2.096;2022-07-22T02:14:38;24.23;;;16.47;;
10511;SDS011;5304;48.604;2.096;2022-07-22T02:17:23;21.77;;;15.53;;
10511;SDS011;5304;48.604;2.096;2022-07-22T02:20:08;19.97;;;15.60;;
10511;SDS011;5304;48.604;2.096;2022-07-22T02:22:52;19.80;;;16.27;;
10511;SDS011;5304;48.604;2.096;2022-07-22T02:25:37;20.73;;;16.43;;
10511;SDS011;5304;48.604;2.096;2022-07-22T02:28:22;21.03;;;16.47;;
10511;SDS011;5304;48.604;2.096;2022-07-22T02:31:06;21.43;;;16.77;;
10511;SDS011;5304;48.604;2.096;2022-07-22T02:33:50;21.27;;;16.80;;
10511;SDS011;5304;48.604;2.096;2022-07-22T02:36:35;22.00;;;16.77;;
10511;SDS011;5304;48.604;2.096;2022-07-22T02:39:21;20.90;;;15.60;;
10511;SDS011;5304;48.604;2.096;2022-07-22T02:42:06;22.40;;;16.37;;
10511;SDS011;5304;48.604;2.096;2022-07-22T02:44:50;20.80;;;15.43;;
10511;SDS011;5304;48.604;2.096;2022-07-22T02:47:35;23.07;;;17.23;;
10511;SDS011;5304;48.604;2.096;2022-07-22T02:50:28;21.50;;;16.10;;
10511;SDS011;5304;48.604;2.096;2022-07-22T02:53:12;21.93;;;16.27;;
10511;SDS011;5304;48.604;2.096;2022-07-22T02:55:57;24.07;;;16.70;;
10511;SDS011;5304;48.604;2.096;2022-07-22T02:58:42;21.57;;;15.97;;
10511;SDS011;5304;48.604;2.096;2022-07-22T03:01:26;23.83;;;16.20;;
10511;SDS011;5304;48.604;2.096;2022-07-22T03:04:11;22.70;;;16.03;;
10511;SDS011;5304;48.604;2.096;2022-07-22T03:06:55;27.27;;;16.40;;
10511;SDS011;5304;48.604;2.096;2022-07-22T03:09:40;20.97;;;16.43;;
10511;SDS011;5304;48.604;2.096;2022-07-22T03:12:24;22.77;;;15.20;;
10511;SDS011;5304;48.604;2.096;2022-07-22T03:15:09;23.93;;;16.30;;
10511;SDS011;5304;48.604;2.096;2022-07-22T03:17:53;22.23;;;17.03;;
10511;SDS011;5304;48.604;2.096;2022-07-22T03:20:38;20.23;;;16.07;;
10511;SDS011;5304;48.604;2.096;2022-07-22T03:23:22;23.00;;;16.53;;
10511;SDS011;5304;48.604;2.096;2022-07-22T03:26:07;22.57;;;15.70;;
10511;SDS011;5304;48.604;2.096;2022-07-22T03:28:52;22.83;;;15.83;;
10511;SDS011;5304;48.604;2.096;2022-07-22T03:31:37;23.87;;;15.80;;
10511;SDS011;5304;48.604;2.096;2022-07-22T03:34:21;23.67;;;16.33;;
10511;SDS011;5304;48.604;2.096;2022-07-22T03:37:06;23.80;;;16.00;;
10511;SDS011;5304;48.604;2.096;2022-07-22T03:39:50;23.00;;;16.23;;
10511;SDS011;5304;48.604;2.096;2022-07-22T03:42:35;21.53;;;15.27;;
10511;SDS011;5304;48.604;2.096;2022-07-22T03:45:19;22.20;;;15.90;;
10511;SDS011;5304;48.604;2.096;2022-07-22T03:48:04;20.97;;;15.77;;
10511;SDS011;5304;48.604;2.096;2022-07-22T03:50:48;22.93;;;14.77;;
10511;SDS011;5304;48.604;2.096;2022-07-22T03:53:33;20.60;;;14.83;;
10511;SDS011;5304;48.604;2.096;2022-07-22T03:56:18;24.10;;;15.53;;
10511;SDS011;5304;48.604;2.096;2022-07-22T03:59:02;21.20;;;14.57;;
10511;SDS011;5304;48.604;2.096;2022-07-22T04:01:47;21.87;;;15.57;;
10511;SDS011;5304;48.604;2.096;2022-07-22T04:04:31;24.67;;;14.63;;
10511;SDS011;5304;48.604;2.096;2022-07-22T04:07:16;17.47;;;14.40;;
10511;SDS011;5304;48.604;2.096;2022-07-22T04:10:00;20.93;;;14.63;;
10511;SDS011;5304;48.604;2.096;2022-07-22T04:12:50;22.83;;;14.73;;
10511;SDS011;5304;48.604;2.096;2022-07-22T04:15:35;21.30;;;15.13;;
10511;SDS011;5304;48.604;2.096;2022-07-22T04:18:19;21.77;;;14.83;;
10511;SDS011;5304;48.604;2.096;2022-07-22T04:21:04;22.57;;;14.60;;
10511;SDS011;5304;48.604;2.096;2022-07-22T04:23:49;18.43;;;13.53;;
10511;SDS011;5304;48.604;2.096;2022-07-22T04:26:33;21.70;;;14.37;;
10511;SDS011;5304;48.604;2.096;2022-07-22T04:29:18;17.23;;;13.73;;
10511;SDS011;5304;48.604;2.096;2022-07-22T04:32:02;16.50;;;14.07;;
10511;SDS011;5304;48.604;2.096;2022-07-22T04:34:47;19.43;;;14.47;;
10511;SDS011;5304;48.604;2.096;2022-07-22T04:37:31;20.40;;;14.20;;
10511;SDS011;5304;48.604;2.096;2022-07-22T04:40:16;17.63;;;13.50;;
10511;SDS011;5304;48.604;2.096;2022-07-22T04:43:00;19.63;;;13.80;;
10511;SDS011;5304;48.604;2.096;2022-07-22T04:45:45;19.53;;;14.23;;
10511;SDS011;5304;48.604;2.096;2022-07-22T04:48:29;19.17;;;13.40;;
10511;SDS011;5304;48.604;2.096;2022-07-22T04:51:14;19.60;;;13.53;;
10511;SDS011;5304;48.604;2.096;2022-07-22T04:53:58;22.10;;;13.57;;
10511;SDS011;5304;48.604;2.096;2022-07-22T04:56:43;20.23;;;13.70;;
10511;SDS011;5304;48.604;2.096;2022-07-22T04:59:27;17.97;;;13.03;;
10511;SDS011;5304;48.604;2.096;2022-07-22T05:02:12;15.23;;;12.67;;
10511;SDS011;5304;48.604;2.096;2022-07-22T05:04:56;18.13;;;13.53;;
10511;SDS011;5304;48.604;2.096;2022-07-22T05:07:40;18.20;;;13.93;;
10511;SDS011;5304;48.604;2.096;2022-07-22T05:10:25;16.90;;;12.73;;
10511;SDS011;5304;48.604;2.096;2022-07-22T05:13:12;22.53;;;13.37;;
10511;SDS011;5304;48.604;2.096;2022-07-22T05:15:57;19.87;;;13.80;;
10511;SDS011;5304;48.604;2.096;2022-07-22T05:18:46;20.63;;;13.30;;
10511;SDS011;5304;48.604;2.096;2022-07-22T05:21:31;19.33;;;13.23;;
10511;SDS011;5304;48.604;2.096;2022-07-22T05:24:16;19.03;;;12.90;;
10511;SDS011;5304;48.604;2.096;2022-07-22T05:27:00;17.70;;;12.30;;
10511;SDS011;5304;48.604;2.096;2022-07-22T05:29:45;14.53;;;12.20;;
10511;SDS011;5304;48.604;2.096;2022-07-22T05:32:29;17.57;;;11.97;;
10511;SDS011;5304;48.604;2.096;2022-07-22T05:35:13;18.90;;;13.23;;
10511;SDS011;5304;48.604;2.096;2022-07-22T05:37:58;18.93;;;12.47;;
10511;SDS011;5304;48.604;2.096;2022-07-22T05:40:42;18.93;;;13.03;;
10511;SDS011;5304;48.604;2.096;2022-07-22T05:43:27;14.87;;;12.73;;
10511;SDS011;5304;48.604;2.096;2022-07-22T05:46:12;21.30;;;12.57;;
10511;SDS011;5304;48.604;2.096;2022-07-22T05:48:56;17.45;;;12.40;;
10511;SDS011;5304;48.604;2.096;2022-07-22T05:51:41;20.17;;;12.13;;
10511;SDS011;5304;48.604;2.096;2022-07-22T05:54:26;20.40;;;12.70;;
10511;SDS011;5304;48.604;2.096;2022-07-22T05:57:11;21.70;;;12.43;;
10511;SDS011;5304;48.604;2.096;2022-07-22T05:59:55;17.73;;;12.90;;
10511;SDS011;5304;48.604;2.096;2022-07-22T06:02:40;18.33;;;13.53;;
10511;SDS011;5304;48.604;2.096;2022-07-22T06:05:25;19.00;;;12.53;;
10511;SDS011;5304;48.604;2.096;2022-07-22T06:08:09;19.27;;;12.53;;
10511;SDS011;5304;48.604;2.096;2022-07-22T06:10:54;17.07;;;12.60;;
10511;SDS011;5304;48.604;2.096;2022-07-22T06:13:38;16.00;;;12.23;;
10511;SDS011;5304;48.604;2.096;2022-07-22T06:16:23;17.45;;;12.00;;
10511;SDS011;5304;48.604;2.096;2022-07-22T06:19:07;16.20;;;12.38;;
10511;SDS011;5304;48.604;2.096;2022-07-22T06:21:51;16.07;;;11.60;;
10511;SDS011;5304;48.604;2.096;2022-07-22T06:24:36;15.68;;;12.63;;
10511;SDS011;5304;48.604;2.096;2022-07-22T06:27:22;16.48;;;11.70;;
10511;SDS011;5304;48.604;2.096;2022-07-22T06:30:06;21.67;;;12.55;;
10511;SDS011;5304;48.604;2.096;2022-07-22T06:32:52;22.00;;;12.00;;
10511;SDS011;5304;48.604;2.096;2022-07-22T06:35:39;13.65;;;10.98;;
10511;SDS011;5304;48.604;2.096;2022-07-22T06:38:24;15.23;;;11.70;;
10511;SDS011;5304;48.604;2.096;2022-07-22T06:41:09;14.52;;;11.77;;
10511;SDS011;5304;48.604;2.096;2022-07-22T06:43:54;14.73;;;10.90;;
10511;SDS011;5304;48.604;2.096;2022-07-22T06:46:38;15.45;;;11.48;;
10511;SDS011;5304;48.604;2.096;2022-07-22T06:49:23;13.00;;;11.30;;
10511;SDS011;5304;48.604;2.096;2022-07-22T06:52:08;17.88;;;11.43;;
10511;SDS011;5304;48.604;2.096;2022-07-22T06:54:52;16.00;;;11.23;;
10511;SDS011;5304;48.604;2.096;2022-07-22T06:57:37;18.35;;;11.32;;
10511;SDS011;5304;48.604;2.096;2022-07-22T07:00:21;15.23;;;10.77;;
10511;SDS011;5304;48.604;2.096;2022-07-22T07:03:06;13.73;;;10.32;;
10511;SDS011;5304;48.604;2.096;2022-07-22T07:05:50;13.02;;;10.15;;
10511;SDS011;5304;48.604;2.096;2022-07-22T07:08:35;15.43;;;10.55;;
10511;SDS011;5304;48.604;2.096;2022-07-22T07:11:20;13.48;;;10.98;;
10511;SDS011;5304;48.604;2.096;2022-07-22T07:14:04;15.27;;;10.20;;
10511;SDS011;5304;48.604;2.096;2022-07-22T07:16:48;15.32;;;10.32;;
10511;SDS011;5304;48.604;2.096;2022-07-22T07:19:33;13.10;;;9.77;;
10511;SDS011;5304;48.604;2.096;2022-07-22T07:22:18;13.70;;;9.98;;
10511;SDS011;5304;48.604;2.096;2022-07-22T07:25:03;14.13;;;10.13;;
10511;SDS011;5304;48.604;2.096;2022-07-22T07:27:48;17.38;;;10.35;;
10511;SDS011;5304;48.604;2.096;2022-07-22T07:30:34;13.52;;;9.75;;
10511;SDS011;5304;48.604;2.096;2022-07-22T07:33:18;14.88;;;10.07;;
10511;SDS011;5304;48.604;2.096;2022-07-22T07:36:03;14.02;;;9.98;;
10511;SDS011;5304;48.604;2.096;2022-07-22T07:38:48;12.05;;;9.90;;
10511;SDS011;5304;48.604;2.096;2022-07-22T07:41:33;12.57;;;9.23;;
10511;SDS011;5304;48.604;2.096;2022-07-22T07:44:17;16.17;;;9.32;;
10511;SDS011;5304;48.604;2.096;2022-07-22T07:47:02;13.32;;;9.82;;
10511;SDS011;5304;48.604;2.096;2022-07-22T07:49:46;14.65;;;9.10;;
10511;SDS011;5304;48.604;2.096;2022-07-22T07:52:35;17.65;;;9.90;;
10511;SDS011;5304;48.604;2.096;2022-07-22T07:55:25;13.43;;;9.70;;
10511;SDS011;5304;48.604;2.096;2022-07-22T07:58:10;17.13;;;9.77;;
10511;SDS011;5304;48.604;2.096;2022-07-22T08:00:54;12.75;;;9.23;;
10511;SDS011;5304;48.604;2.096;2022-07-22T08:03:39;13.15;;;9.68;;
10511;SDS011;5304;48.604;2.096;2022-07-22T08:06:23;12.02;;;9.55;;
10511;SDS011;5304;48.604;2.096;2022-07-22T08:09:08;14.48;;;9.00;;
10511;SDS011;5304;48.604;2.096;2022-07-22T08:11:54;15.13;;;9.40;;
10511;SDS011;5304;48.604;2.096;2022-07-22T08:14:38;14.70;;;9.25;;
10511;SDS011;5304;48.604;2.096;2022-07-22T08:17:22;13.73;;;9.77;;
10511;SDS011;5304;48.604;2.096;2022-07-22T08:20:08;12.63;;;8.95;;
10511;SDS011;5304;48.604;2.096;2022-07-22T08:22:53;11.93;;;8.60;;
10511;SDS011;5304;48.604;2.096;2022-07-22T08:25:37;10.40;;;8.95;;
10511;SDS011;5304;48.604;2.096;2022-07-22T08:28:22;13.38;;;9.27;;
10511;SDS011;5304;48.604;2.096;2022-07-22T08:31:06;14.38;;;9.25;;
10511;SDS011;5304;48.604;2.096;2022-07-22T08:33:51;14.70;;;9.50;;
10511;SDS011;5304;48.604;2.096;2022-07-22T08:36:35;14.80;;;10.13;;
10511;SDS011;5304;48.604;2.096;2022-07-22T08:39:21;12.32;;;8.75;;
10511;SDS011;5304;48.604;2.096;2022-07-22T08:42:05;11.23;;;9.45;;
10511;SDS011;5304;48.604;2.096;2022-07-22T08:44:50;13.07;;;8.77;;
10511;SDS011;5304;48.604;2.096;2022-07-22T08:47:36;12.75;;;9.63;;
10511;SDS011;5304;48.604;2.096;2022-07-22T08:50:21;10.75;;;9.00;;
10511;SDS011;5304;48.604;2.096;2022-07-22T08:53:08;12.50;;;9.68;;
10511;SDS011;5304;48.604;2.096;2022-07-22T08:55:54;11.60;;;8.85;;
10511;SDS011;5304;48.604;2.096;2022-07-22T08:58:39;11.65;;;9.35;;
10511;SDS011;5304;48.604;2.096;2022-07-22T09:01:24;12.95;;;9.20;;
10511;SDS011;5304;48.604;2.096;2022-07-22T09:04:08;12.40;;;9.93;;
10511;SDS011;5304;48.604;2.096;2022-07-22T09:06:53;15.18;;;9.05;;
10511;SDS011;5304;48.604;2.096;2022-07-22T09:09:38;12.98;;;8.60;;
10511;SDS011;5304;48.604;2.096;2022-07-22T09:12:22;12.23;;;8.75;;
10511;SDS011;5304;48.604;2.096;2022-07-22T09:15:08;10.45;;;9.13;;
10511;SDS011;5304;48.604;2.096;2022-07-22T09:17:53;11.70;;;9.05;;
10511;SDS011;5304;48.604;2.096;2022-07-22T09:20:37;10.05;;;8.57;;
10511;SDS011;5304;48.604;2.096;2022-07-22T09:23:22;12.32;;;9.10;;
10511;SDS011;5304;48.604;2.096;2022-07-22T09:26:08;12.13;;;9.25;;
10511;SDS011;5304;48.604;2.096;2022-07-22T09:29:12;15.38;;;8.82;;
10511;SDS011;5304;48.604;2.096;2022-07-22T09:31:57;12.45;;;8.90;;
10511;SDS011;5304;48.604;2.096;2022-07-22T09:34:42;16.13;;;8.48;;
10511;SDS011;5304;48.604;2.096;2022-07-22T09:37:26;11.23;;;9.00;;
10511;SDS011;5304;48.604;2.096;2022-07-22T09:40:11;14.10;;;9.68;;
10511;SDS011;5304;48.604;2.096;2022-07-22T09:43:05;12.13;;;8.90;;
10511;SDS011;5304;48.604;2.096;2022-07-22T09:45:57;11.40;;;9.60;;
10511;SDS011;5304;48.604;2.096;2022-07-22T09:48:41;13.57;;;9.38;;
10511;SDS011;5304;48.604;2.096;2022-07-22T09:51:27;15.05;;;9.00;;
10511;SDS011;5304;48.604;2.096;2022-07-22T09:54:13;13.43;;;8.93;;
10511;SDS011;5304;48.604;2.096;2022-07-22T09:56:57;11.07;;;8.35;;
10511;SDS011;5304;48.604;2.096;2022-07-22T09:59:42;11.57;;;8.65;;
10511;SDS011;5304;48.604;2.096;2022-07-22T10:02:27;17.08;;;9.27;;
10511;SDS011;5304;48.604;2.096;2022-07-22T10:05:13;12.20;;;8.75;;
10511;SDS011;5304;48.604;2.096;2022-07-22T10:08:00;13.10;;;9.35;;
10511;SDS011;5304;48.604;2.096;2022-07-22T10:10:46;13.50;;;9.73;;
10511;SDS011;5304;48.604;2.096;2022-07-22T10:13:32;11.10;;;8.70;;
10511;SDS011;5304;48.604;2.096;2022-07-22T10:16:18;11.63;;;9.48;;
10511;SDS011;5304;48.604;2.096;2022-07-22T10:19:03;12.27;;;9.18;;
10511;SDS011;5304;48.604;2.096;2022-07-22T10:21:47;11.98;;;9.77;;
10511;SDS011;5304;48.604;2.096;2022-07-22T10:24:32;12.88;;;9.73;;
10511;SDS011;5304;48.604;2.096;2022-07-22T10:27:16;18.38;;;10.18;;
10511;SDS011;5304;48.604;2.096;2022-07-22T10:30:34;12.57;;;9.57;;
10511;SDS011;5304;48.604;2.096;2022-07-22T10:33:20;16.73;;;10.60;;
10511;SDS011;5304;48.604;2.096;2022-07-22T10:36:12;11.93;;;9.60;;
10511;SDS011;5304;48.604;2.096;2022-07-22T10:39:07;14.75;;;9.85;;
10511;SDS011;5304;48.604;2.096;2022-07-22T10:41:54;13.82;;;10.60;;
10511;SDS011;5304;48.604;2.096;2022-07-22T10:44:48;13.95;;;9.93;;
10511;SDS011;5304;48.604;2.096;2022-07-22T10:47:54;13.95;;;9.95;;
10511;SDS011;5304;48.604;2.096;2022-07-22T10:50:48;10.93;;;9.68;;
10511;SDS011;5304;48.604;2.096;2022-07-22T10:53:46;13.48;;;9.63;;
10511;SDS011;5304;48.604;2.096;2022-07-22T10:56:31;14.48;;;10.10;;
10511;SDS011;5304;48.604;2.096;2022-07-22T10:59:17;13.90;;;9.70;;
10511;SDS011;5304;48.604;2.096;2022-07-22T11:02:04;12.77;;;10.07;;
10511;SDS011;5304;48.604;2.096;2022-07-22T11:04:49;15.75;;;10.13;;
10511;SDS011;5304;48.604;2.096;2022-07-22T11:07:34;13.32;;;10.30;;
10511;SDS011;5304;48.604;2.096;2022-07-22T11:10:24;14.80;;;9.55;;
10511;SDS011;5304;48.604;2.096;2022-07-22T11:13:08;13.65;;;10.43;;
10511;SDS011;5304;48.604;2.096;2022-07-22T11:15:53;14.63;;;10.45;;
10511;SDS011;5304;48.604;2.096;2022-07-22T11:18:51;13.20;;;10.00;;
10511;SDS011;5304;48.604;2.096;2022-07-22T11:21:37;15.30;;;10.15;;
10511;SDS011;5304;48.604;2.096;2022-07-22T11:24:23;12.95;;;9.93;;
10511;SDS011;5304;48.604;2.096;2022-07-22T11:27:12;16.25;;;10.55;;
10511;SDS011;5304;48.604;2.096;2022-07-22T11:29:58;13.93;;;10.63;;
10511;SDS011;5304;48.604;2.096;2022-07-22T11:32:43;15.02;;;9.57;;
10511;SDS011;5304;48.604;2.096;2022-07-22T11:35:27;12.95;;;9.90;;
10511;SDS011;5304;48.604;2.096;2022-07-22T11:38:12;12.60;;;9.32;;
10511;SDS011;5304;48.604;2.096;2022-07-22T11:40:56;12.60;;;10.00;;
10511;SDS011;5304;48.604;2.096;2022-07-22T11:43:49;16.67;;;10.50;;
10511;SDS011;5304;48.604;2.096;2022-07-22T11:46:38;15.93;;;10.85;;
10511;SDS011;5304;48.604;2.096;2022-07-22T11:49:24;13.18;;;9.40;;
10511;SDS011;5304;48.604;2.096;2022-07-22T11:52:11;16.30;;;10.02;;
10511;SDS011;5304;48.604;2.096;2022-07-22T11:54:56;12.98;;;9.82;;
10511;SDS011;5304;48.604;2.096;2022-07-22T11:57:47;12.77;;;9.80;;
10511;SDS011;5304;48.604;2.096;2022-07-22T12:00:32;15.05;;;10.13;;
10511;SDS011;5304;48.604;2.096;2022-07-22T12:03:17;17.00;;;10.52;;
10511;SDS011;5304;48.604;2.096;2022-07-22T12:06:02;11.85;;;10.25;;
10511;SDS011;5304;48.604;2.096;2022-07-22T12:08:52;11.98;;;9.38;;
10511;SDS011;5304;48.604;2.096;2022-07-22T12:11:39;14.57;;;10.27;;
10511;SDS011;5304;48.604;2.096;2022-07-22T12:14:29;14.68;;;9.90;;
10511;SDS011;5304;48.604;2.096;2022-07-22T12:17:15;11.50;;;9.90;;
10511;SDS011;5304;48.604;2.096;2022-07-22T12:20:09;12.18;;;10.57;;
10511;SDS011;5304;48.604;2.096;2022-07-22T12:22:56;15.55;;;10.57;;
10511;SDS011;5304;48.604;2.096;2022-07-22T12:29:11;16.58;;;10.10;;
10511;SDS011;5304;48.604;2.096;2022-07-22T12:32:04;12.48;;;10.45;;
10511;SDS011;5304;48.604;2.096;2022-07-22T12:37:41;12.38;;;9.85;;
10511;SDS011;5304;48.604;2.096;2022-07-22T12:40:27;14.05;;;10.52;;
10511;SDS011;5304;48.604;2.096;2022-07-22T12:43:11;15.70;;;10.50;;
10511;SDS011;5304;48.604;2.096;2022-07-22T12:45:56;15.23;;;10.45;;
10511;SDS011;5304;48.604;2.096;2022-07-22T12:48:50;13.10;;;10.15;;
10511;SDS011;5304;48.604;2.096;2022-07-22T12:51:35;12.68;;;10.05;;
10511;SDS011;5304;48.604;2.096;2022-07-22T12:54:19;16.88;;;10.35;;
10511;SDS011;5304;48.604;2.096;2022-07-22T12:57:04;10.98;;;9.90;;
10511;SDS011;5304;48.604;2.096;2022-07-22T12:59:53;16.25;;;11.77;;
10511;SDS011;5304;48.604;2.096;2022-07-22T13:02:38;11.32;;;9.35;;
10511;SDS011;5304;48.604;2.096;2022-07-22T13:05:23;11.73;;;10.52;;
10511;SDS011;5304;48.604;2.096;2022-07-22T13:08:08;14.10;;;10.40;;
10511;SDS011;5304;48.604;2.096;2022-07-22T13:10:53;11.32;;;10.00;;
10511;SDS011;5304;48.604;2.096;2022-07-22T13:13:37;12.95;;;9.50;;
10511;SDS011;5304;48.604;2.096;2022-07-22T13:16:22;13.98;;;9.95;;
10511;SDS011;5304;48.604;2.096;2022-07-22T13:19:07;14.13;;;9.50;;
10511;SDS011;5304;48.604;2.096;2022-07-22T13:21:51;16.73;;;10.18;;
10511;SDS011;5304;48.604;2.096;2022-07-22T13:24:36;12.10;;;10.20;;
10511;SDS011;5304;48.604;2.096;2022-07-22T13:27:21;12.25;;;9.40;;
10511;SDS011;5304;48.604;2.096;2022-07-22T13:30:06;11.75;;;10.60;;
10511;SDS011;5304;48.604;2.096;2022-07-22T13:32:51;14.73;;;11.02;;
10511;SDS011;5304;48.604;2.096;2022-07-22T13:35:36;16.27;;;10.57;;
10511;SDS011;5304;48.604;2.096;2022-07-22T13:38:20;14.48;;;10.48;;
10511;SDS011;5304;48.604;2.096;2022-07-22T13:41:05;12.07;;;10.18;;
10511;SDS011;5304;48.604;2.096;2022-07-22T13:44:00;12.27;;;9.90;;
10511;SDS011;5304;48.604;2.096;2022-07-22T13:46:44;11.88;;;10.38;;
10511;SDS011;5304;48.604;2.096;2022-07-22T13:49:29;14.43;;;11.43;;
10511;SDS011;5304;48.604;2.096;2022-07-22T13:52:13;13.48;;;10.98;;
10511;SDS011;5304;48.604;2.096;2022-07-22T13:54:58;14.45;;;11.23;;
10511;SDS011;5304;48.604;2.096;2022-07-22T13:57:42;11.82;;;9.93;;
10511;SDS011;5304;48.604;2.096;2022-07-22T14:00:27;11.75;;;9.65;;
10511;SDS011;5304;48.604;2.096;2022-07-22T14:03:12;12.85;;;10.38;;
10511;SDS011;5304;48.604;2.096;2022-07-22T14:05:56;12.48;;;11.13;;
10511;SDS011;5304;48.604;2.096;2022-07-22T14:08:41;13.70;;;11.27;;
10511;SDS011;5304;48.604;2.096;2022-07-22T14:11:25;16.77;;;10.68;;
10511;SDS011;5304;48.604;2.096;2022-07-22T14:14:09;13.38;;;10.73;;
10511;SDS011;5304;48.604;2.096;2022-07-22T14:16:54;14.38;;;10.85;;
10511;SDS011;5304;48.604;2.096;2022-07-22T14:19:38;12.98;;;10.57;;
10511;SDS011;5304;48.604;2.096;2022-07-22T14:22:23;12.43;;;10.90;;
10511;SDS011;5304;48.604;2.096;2022-07-22T14:25:08;14.27;;;10.88;;
10511;SDS011;5304;48.604;2.096;2022-07-22T14:27:52;12.30;;;10.57;;
10511;SDS011;5304;48.604;2.096;2022-07-22T14:30:37;12.02;;;10.43;;
10511;SDS011;5304;48.604;2.096;2022-07-22T14:33:21;15.30;;;11.18;;
10511;SDS011;5304;48.604;2.096;2022-07-22T14:36:06;15.00;;;10.93;;
10511;SDS011;5304;48.604;2.096;2022-07-22T14:38:51;16.02;;;11.45;;
10511;SDS011;5304;48.604;2.096;2022-07-22T14:41:37;16.42;;;12.00;;
10511;SDS011;5304;48.604;2.096;2022-07-22T14:44:22;12.25;;;10.07;;
10511;SDS011;5304;48.604;2.096;2022-07-22T14:47:06;14.95;;;10.32;;
10511;SDS011;5304;48.604;2.096;2022-07-22T14:49:50;11.88;;;10.68;;
10511;SDS011;5304;48.604;2.096;2022-07-22T14:52:35;14.65;;;11.15;;
10511;SDS011;5304;48.604;2.096;2022-07-22T14:55:19;13.13;;;11.82;;
10511;SDS011;5304;48.604;2.096;2022-07-22T14:58:04;13.30;;;10.73;;
10511;SDS011;5304;48.604;2.096;2022-07-22T15:00:48;14.45;;;11.60;;
10511;SDS011;5304;48.604;2.096;2022-07-22T15:03:33;14.85;;;11.95;;
10511;SDS011;5304;48.604;2.096;2022-07-22T15:06:17;16.20;;;11.18;;
10511;SDS011;5304;48.604;2.096;2022-07-22T15:09:02;17.55;;;12.25;;
10511;SDS011;5304;48.604;2.096;2022-07-22T15:11:47;14.07;;;12.43;;
10511;SDS011;5304;48.604;2.096;2022-07-22T15:14:31;14.02;;;11.88;;
10511;SDS011;5304;48.604;2.096;2022-07-22T15:17:16;14.98;;;11.80;;
10511;SDS011;5304;48.604;2.096;2022-07-22T15:20:01;15.63;;;11.77;;
10511;SDS011;5304;48.604;2.096;2022-07-22T15:22:46;15.05;;;11.85;;
10511;SDS011;5304;48.604;2.096;2022-07-22T15:25:30;13.27;;;10.98;;
10511;SDS011;5304;48.604;2.096;2022-07-22T15:28:15;11.45;;;10.20;;
10511;SDS011;5304;48.604;2.096;2022-07-22T15:31:00;11.05;;;9.93;;
10511;SDS011;5304;48.604;2.096;2022-07-22T15:33:45;11.90;;;10.43;;
10511;SDS011;5304;48.604;2.096;2022-07-22T15:36:30;15.02;;;10.85;;
10511;SDS011;5304;48.604;2.096;2022-07-22T15:39:14;13.73;;;12.13;;
10511;SDS011;5304;48.604;2.096;2022-07-22T15:41:59;14.20;;;11.05;;
10511;SDS011;5304;48.604;2.096;2022-07-22T15:44:44;13.80;;;10.98;;
10511;SDS011;5304;48.604;2.096;2022-07-22T15:47:28;18.20;;;12.10;;
10511;SDS011;5304;48.604;2.096;2022-07-22T15:50:13;15.35;;;11.55;;
10511;SDS011;5304;48.604;2.096;2022-07-22T15:52:58;13.77;;;12.32;;
10511;SDS011;5304;48.604;2.096;2022-07-22T15:55:42;14.50;;;11.55;;
10511;SDS011;5304;48.604;2.096;2022-07-22T15:58:27;15.57;;;11.35;;
10511;SDS011;5304;48.604;2.096;2022-07-22T16:01:31;14.00;;;11.63;;
10511;SDS011;5304;48.604;2.096;2022-07-22T16:04:15;14.30;;;11.75;;
10511;SDS011;5304;48.604;2.096;2022-07-22T16:06:59;17.77;;;13.27;;
10511;SDS011;5304;48.604;2.096;2022-07-22T16:09:44;18.73;;;13.07;;
10511;SDS011;5304;48.604;2.096;2022-07-22T16:12:29;16.30;;;13.35;;
10511;SDS011;5304;48.604;2.096;2022-07-22T16:15:13;18.63;;;14.40;;
10511;SDS011;5304;48.604;2.096;2022-07-22T16:17:58;15.63;;;14.02;;
10511;SDS011;5304;48.604;2.096;2022-07-22T16:20:43;16.88;;;13.65;;
10511;SDS011;5304;48.604;2.096;2022-07-22T16:23:27;17.95;;;14.15;;
10511;SDS011;5304;48.604;2.096;2022-07-22T16:26:13;17.02;;;13.43;;
10511;SDS011;5304;48.604;2.096;2022-07-22T16:28:58;14.93;;;12.57;;
10511;SDS011;5304;48.604;2.096;2022-07-22T16:31:42;16.35;;;12.55;;
10511;SDS011;5304;48.604;2.096;2022-07-22T16:34:27;17.05;;;13.13;;